sensor_id;sensor_type;location;lat;lon;timestamp;pressure;altitude;pressure_sealevel;temperature;humidity
59829;BME280;45708;51.848;107.620;2023-05-11T00:02:07;94693.84;;;7.96;61.42
59829;BME280;45708;51.848;107.620;2023-05-11T00:07:08;94695.19;;;7.73;61.22
59829;BME280;45708;51.848;107.620;2023-05-11T00:12:08;94735.69;;;8.04;60.86
59829;BME280;45708;51.848;107.620;2023-05-11T00:17:09;94720.22;;;7.82;60.49
59829;BME280;45708;51.848;107.620;2023-05-11T00:22:10;94729.38;;;7.73;60.92
59829;BME280;45708;51.848;107.620;2023-05-11T00:27:11;94748.22;;;7.57;60.27
59829;BME280;45708;51.848;107.620;2023-05-11T00:32:12;94736.81;;;7.31;60.11
59829;BME280;45708;51.848;107.620;2023-05-11T00:37:12;94771.59;;;7.20;60.51
59829;BME280;45708;51.848;107.620;2023-05-11T00:42:13;94793.22;;;7.16;59.59
59829;BME280;45708;51.848;107.620;2023-05-11T00:47:14;94810.22;;;7.00;59.65
59829;BME280;45708;51.848;107.620;2023-05-11T00:52:15;94809.22;;;6.88;60.09
59829;BME280;45708;51.848;107.620;2023-05-11T00:57:16;94837.09;;;6.69;60.68
59829;BME280;45708;51.848;107.620;2023-05-11T01:02:17;94837.28;;;6.61;60.18
59829;BME280;45708;51.848;107.620;2023-05-11T01:07:24;94839.50;;;6.70;59.71
59829;BME280;45708;51.848;107.620;2023-05-11T01:17:48;94798.69;;;6.22;58.77
59829;BME280;45708;51.848;107.620;2023-05-11T01:33:53;94910.19;;;6.79;58.35
59829;BME280;45708;51.848;107.620;2023-05-11T01:38:57;94904.56;;;6.82;57.69
59829;BME280;45708;51.848;107.620;2023-05-11T01:44:03;94922.75;;;7.10;56.79
59829;BME280;45708;51.848;107.620;2023-05-11T01:49:05;94925.41;;;7.43;56.28
59829;BME280;45708;51.848;107.620;2023-05-11T01:54:08;94929.63;;;7.44;55.68
59829;BME280;45708;51.848;107.620;2023-05-11T01:59:10;94946.16;;;7.90;55.08
59829;BME280;45708;51.848;107.620;2023-05-11T02:04:12;94933.59;;;7.92;55.69
59829;BME280;45708;51.848;107.620;2023-05-11T02:09:15;94958.53;;;7.70;55.84
59829;BME280;45708;51.848;107.620;2023-05-11T02:14:18;94964.19;;;7.67;56.21
59829;BME280;45708;51.848;107.620;2023-05-11T02:19:20;94995.94;;;7.46;56.38
59829;BME280;45708;51.848;107.620;2023-05-11T02:24:22;94981.38;;;7.23;56.16
59829;BME280;45708;51.848;107.620;2023-05-11T02:29:24;94985.84;;;7.43;56.45
59829;BME280;45708;51.848;107.620;2023-05-11T02:34:28;94991.09;;;7.43;56.97
59829;BME280;45708;51.848;107.620;2023-05-11T02:39:34;95010.88;;;7.25;56.76
59829;BME280;45708;51.848;107.620;2023-05-11T02:44:36;95011.06;;;7.17;57.67
59829;BME280;45708;51.848;107.620;2023-05-11T02:49:39;95019.84;;;6.77;59.43
59829;BME280;45708;51.848;107.620;2023-05-11T02:54:41;95005.28;;;6.67;60.10
59829;BME280;45708;51.848;107.620;2023-05-11T02:59:44;95016.22;;;6.36;61.41
59829;BME280;45708;51.848;107.620;2023-05-11T03:04:45;95004.44;;;6.19;62.78
59829;BME280;45708;51.848;107.620;2023-05-11T03:09:46;95005.94;;;6.35;63.59
59829;BME280;45708;51.848;107.620;2023-05-11T03:14:47;95009.44;;;7.03;61.81
59829;BME280;45708;51.848;107.620;2023-05-11T03:19:48;94999.19;;;7.48;61.29
59829;BME280;45708;51.848;107.620;2023-05-11T03:24:51;95014.13;;;7.60;60.39
59829;BME280;45708;51.848;107.620;2023-05-11T03:29:52;95009.66;;;7.94;59.62
59829;BME280;45708;51.848;107.620;2023-05-11T03:34:54;95022.19;;;7.99;57.11
59829;BME280;45708;51.848;107.620;2023-05-11T03:39:57;95029.91;;;7.93;58.20
59829;BME280;45708;51.848;107.620;2023-05-11T03:44:59;95031.91;;;8.11;58.28
59829;BME280;45708;51.848;107.620;2023-05-11T03:50:02;95044.44;;;8.16;57.99
59829;BME280;45708;51.848;107.620;2023-05-11T03:55:04;95052.47;;;8.61;56.39
59829;BME280;45708;51.848;107.620;2023-05-11T04:00:06;95059.31;;;8.81;54.76
59829;BME280;45708;51.848;107.620;2023-05-11T04:05:08;95034.50;;;9.02;54.10
59829;BME280;45708;51.848;107.620;2023-05-11T04:10:09;95046.28;;;8.93;53.55
59829;BME280;45708;51.848;107.620;2023-05-11T04:15:10;95052.56;;;8.21;54.85
59829;BME280;45708;51.848;107.620;2023-05-11T04:20:11;95081.28;;;7.89;56.03
59829;BME280;45708;51.848;107.620;2023-05-11T04:25:12;95066.28;;;7.57;57.65
59829;BME280;45708;51.848;107.620;2023-05-11T04:30:13;95083.47;;;7.53;57.40
59829;BME280;45708;51.848;107.620;2023-05-11T04:35:14;95075.72;;;7.18;58.58
59829;BME280;45708;51.848;107.620;2023-05-11T04:40:14;95073.84;;;6.99;59.17
59829;BME280;45708;51.848;107.620;2023-05-11T04:45:15;95081.97;;;7.11;59.15
59829;BME280;45708;51.848;107.620;2023-05-11T04:50:16;95074.28;;;7.16;58.79
59829;BME280;45708;51.848;107.620;2023-05-11T04:55:17;95105.97;;;7.62;59.15
59829;BME280;45708;51.848;107.620;2023-05-11T05:00:18;95069.97;;;7.62;58.77
59829;BME280;45708;51.848;107.620;2023-05-11T05:05:19;95076.44;;;8.00;57.65
59829;BME280;45708;51.848;107.620;2023-05-11T05:10:20;95084.53;;;8.11;57.34
59829;BME280;45708;51.848;107.620;2023-05-11T05:15:21;95076.41;;;8.46;56.58
59829;BME280;45708;51.848;107.620;2023-05-11T05:20:22;95059.38;;;8.62;55.33
59829;BME280;45708;51.848;107.620;2023-05-11T05:25:23;95089.63;;;9.04;54.65
59829;BME280;45708;51.848;107.620;2023-05-11T05:30:24;95083.84;;;9.27;53.83
59829;BME280;45708;51.848;107.620;2023-05-11T05:35:24;95041.88;;;9.25;53.09
59829;BME280;45708;51.848;107.620;2023-05-11T05:40:25;95098.06;;;9.57;53.01
59829;BME280;45708;51.848;107.620;2023-05-11T05:45:26;95088.19;;;9.46;52.62
59829;BME280;45708;51.848;107.620;2023-05-11T05:50:27;95080.31;;;9.01;53.38
59829;BME280;45708;51.848;107.620;2023-05-11T05:55:28;95065.81;;;9.24;53.12
59829;BME280;45708;51.848;107.620;2023-05-11T06:00:28;95057.75;;;9.50;51.91
59829;BME280;45708;51.848;107.620;2023-05-11T06:05:29;95060.84;;;9.72;51.62
59829;BME280;45708;51.848;107.620;2023-05-11T06:10:30;95055.91;;;9.82;50.85
59829;BME280;45708;51.848;107.620;2023-05-11T06:15:31;95059.78;;;10.29;49.59
59829;BME280;45708;51.848;107.620;2023-05-11T06:20:32;95056.44;;;10.59;49.12
59829;BME280;45708;51.848;107.620;2023-05-11T06:25:33;95053.81;;;10.77;48.26
59829;BME280;45708;51.848;107.620;2023-05-11T06:30:34;95067.53;;;11.04;48.04
59829;BME280;45708;51.848;107.620;2023-05-11T06:35:35;95069.38;;;11.04;46.89
59829;BME280;45708;51.848;107.620;2023-05-11T06:40:36;95086.53;;;10.58;47.81
59829;BME280;45708;51.848;107.620;2023-05-11T06:45:37;95075.03;;;10.27;47.65
59829;BME280;45708;51.848;107.620;2023-05-11T06:50:38;95073.44;;;9.95;49.02
59829;BME280;45708;51.848;107.620;2023-05-11T06:55:39;95081.56;;;10.18;48.90
59829;BME280;45708;51.848;107.620;2023-05-11T07:00:40;95080.28;;;9.77;49.69
59829;BME280;45708;51.848;107.620;2023-05-11T07:05:40;95073.88;;;9.67;49.84
59829;BME280;45708;51.848;107.620;2023-05-11T07:10:41;95075.69;;;9.66;50.18
59829;BME280;45708;51.848;107.620;2023-05-11T07:15:42;95074.53;;;9.87;49.76
59829;BME280;45708;51.848;107.620;2023-05-11T07:20:43;95064.72;;;10.19;48.96
59829;BME280;45708;51.848;107.620;2023-05-11T07:25:44;95079.00;;;10.36;48.22
59829;BME280;45708;51.848;107.620;2023-05-11T07:30:46;95075.63;;;10.29;48.13
59829;BME280;45708;51.848;107.620;2023-05-11T07:35:46;95069.19;;;10.25;47.79
59829;BME280;45708;51.848;107.620;2023-05-11T07:40:47;95063.94;;;10.44;47.45
59829;BME280;45708;51.848;107.620;2023-05-11T07:45:48;95048.28;;;10.60;46.74
59829;BME280;45708;51.848;107.620;2023-05-11T07:50:49;95049.53;;;10.76;46.80
59829;BME280;45708;51.848;107.620;2023-05-11T07:55:50;95046.53;;;10.91;45.85
59829;BME280;45708;51.848;107.620;2023-05-11T08:00:50;95036.31;;;10.94;44.75
59829;BME280;45708;51.848;107.620;2023-05-11T08:05:51;95034.09;;;11.10;44.11
59829;BME280;45708;51.848;107.620;2023-05-11T08:10:52;95058.63;;;11.17;44.06
59829;BME280;45708;51.848;107.620;2023-05-11T08:15:53;95034.69;;;11.12;43.59
59829;BME280;45708;51.848;107.620;2023-05-11T08:20:54;95045.41;;;10.98;43.68
59829;BME280;45708;51.848;107.620;2023-05-11T08:25:55;95040.44;;;10.72;44.41
59829;BME280;45708;51.848;107.620;2023-05-11T08:30:57;95020.19;;;11.03;43.66
59829;BME280;45708;51.848;107.620;2023-05-11T08:35:58;95024.72;;;11.55;42.45
59829;BME280;45708;51.848;107.620;2023-05-11T08:41:00;95013.94;;;11.69;41.00
59829;BME280;45708;51.848;107.620;2023-05-11T08:46:05;95002.50;;;11.98;39.83
59829;BME280;45708;51.848;107.620;2023-05-11T08:51:08;95022.69;;;12.23;39.94
59829;BME280;45708;51.848;107.620;2023-05-11T08:56:10;95025.53;;;12.33;40.67
59829;BME280;45708;51.848;107.620;2023-05-11T09:01:11;95030.38;;;12.12;41.04
59829;BME280;45708;51.848;107.620;2023-05-11T09:06:13;95011.03;;;11.47;42.34
59829;BME280;45708;51.848;107.620;2023-05-11T09:11:15;95031.38;;;11.16;43.62
59829;BME280;45708;51.848;107.620;2023-05-11T09:16:16;95025.50;;;10.84;44.37
59829;BME280;45708;51.848;107.620;2023-05-11T09:21:17;95027.56;;;10.64;45.46
59829;BME280;45708;51.848;107.620;2023-05-11T09:26:20;95025.13;;;10.62;45.30
59829;BME280;45708;51.848;107.620;2023-05-11T09:31:50;95029.59;;;10.62;45.66
59829;BME280;45708;51.848;107.620;2023-05-11T09:36:53;95026.94;;;10.80;45.38
59829;BME280;45708;51.848;107.620;2023-05-11T09:47:15;95013.59;;;10.75;44.48
59829;BME280;45708;51.848;107.620;2023-05-11T09:52:17;95017.03;;;10.76;43.88
59829;BME280;45708;51.848;107.620;2023-05-11T09:57:23;95014.97;;;10.96;43.19
59829;BME280;45708;51.848;107.620;2023-05-11T10:02:28;95016.94;;;11.01;43.03
59829;BME280;45708;51.848;107.620;2023-05-11T10:07:33;95025.00;;;11.06;42.97
59829;BME280;45708;51.848;107.620;2023-05-11T10:12:35;95013.09;;;11.15;43.47
59829;BME280;45708;51.848;107.620;2023-05-11T10:17:36;95022.59;;;11.34;42.64
59829;BME280;45708;51.848;107.620;2023-05-11T10:22:37;95021.47;;;11.12;42.56
59829;BME280;45708;51.848;107.620;2023-05-11T10:27:39;95024.56;;;11.09;42.55
59829;BME280;45708;51.848;107.620;2023-05-11T10:32:43;95017.66;;;11.08;42.73
59829;BME280;45708;51.848;107.620;2023-05-11T10:37:46;95009.84;;;10.83;41.75
59829;BME280;45708;51.848;107.620;2023-05-11T10:42:56;95027.31;;;10.84;42.29
59829;BME280;45708;51.848;107.620;2023-05-11T11:03:39;95026.78;;;10.93;40.90
59829;BME280;45708;51.848;107.620;2023-05-11T11:09:00;95024.81;;;10.89;40.95
59829;BME280;45708;51.848;107.620;2023-05-11T11:14:02;95027.25;;;10.54;40.95
59829;BME280;45708;51.848;107.620;2023-05-11T11:29:39;95031.19;;;10.01;40.82
59829;BME280;45708;51.848;107.620;2023-05-11T11:34:40;95026.69;;;9.77;41.28
59829;BME280;45708;51.848;107.620;2023-05-11T11:44:42;95014.03;;;9.36;41.71
59829;BME280;45708;51.848;107.620;2023-05-11T11:49:46;95040.44;;;9.29;41.82
59829;BME280;45708;51.848;107.620;2023-05-11T11:54:47;95041.72;;;9.13;42.06
59829;BME280;45708;51.848;107.620;2023-05-11T11:59:48;95044.25;;;8.95;42.41
59829;BME280;45708;51.848;107.620;2023-05-11T12:04:51;95048.56;;;8.83;42.17
59829;BME280;45708;51.848;107.620;2023-05-11T12:09:55;95051.06;;;8.65;42.31
59829;BME280;45708;51.848;107.620;2023-05-11T12:14:56;95049.72;;;8.42;42.45
59829;BME280;45708;51.848;107.620;2023-05-11T12:20:11;95050.09;;;8.26;42.79
59829;BME280;45708;51.848;107.620;2023-05-11T12:25:12;95066.50;;;8.15;42.76
59829;BME280;45708;51.848;107.620;2023-05-11T12:30:39;95052.56;;;8.01;43.26
59829;BME280;45708;51.848;107.620;2023-05-11T12:35:42;95062.09;;;7.82;42.93
59829;BME280;45708;51.848;107.620;2023-05-11T12:40:47;95057.63;;;7.63;43.18
59829;BME280;45708;51.848;107.620;2023-05-11T12:45:49;95053.53;;;7.41;43.95
59829;BME280;45708;51.848;107.620;2023-05-11T12:50:50;95054.50;;;7.13;44.76
59829;BME280;45708;51.848;107.620;2023-05-11T12:55:57;95067.81;;;7.05;44.76
59829;BME280;45708;51.848;107.620;2023-05-11T13:00:58;95063.25;;;6.79;45.05
59829;BME280;45708;51.848;107.620;2023-05-11T13:06:10;95074.53;;;6.66;45.29
59829;BME280;45708;51.848;107.620;2023-05-11T13:11:24;95074.84;;;6.50;45.85
59829;BME280;45708;51.848;107.620;2023-05-11T13:16:31;95055.34;;;6.25;46.07
59829;BME280;45708;51.848;107.620;2023-05-11T13:21:33;95056.84;;;6.13;45.80
59829;BME280;45708;51.848;107.620;2023-05-11T13:26:33;95058.03;;;6.03;46.39
59829;BME280;45708;51.848;107.620;2023-05-11T13:31:48;95071.75;;;6.05;45.90
59829;BME280;45708;51.848;107.620;2023-05-11T13:36:49;95072.50;;;5.99;45.60
59829;BME280;45708;51.848;107.620;2023-05-11T13:41:50;95062.91;;;5.85;45.95
59829;BME280;45708;51.848;107.620;2023-05-11T13:46:51;95062.19;;;5.76;45.88
59829;BME280;45708;51.848;107.620;2023-05-11T13:51:52;95065.59;;;5.70;46.06
59829;BME280;45708;51.848;107.620;2023-05-11T13:56:52;95073.22;;;5.65;46.09
59829;BME280;45708;51.848;107.620;2023-05-11T14:01:53;95065.03;;;5.54;46.51
59829;BME280;45708;51.848;107.620;2023-05-11T14:06:54;95069.53;;;5.38;46.18
59829;BME280;45708;51.848;107.620;2023-05-11T14:11:55;95070.41;;;5.24;46.65
59829;BME280;45708;51.848;107.620;2023-05-11T14:16:56;95078.66;;;5.21;46.81
59829;BME280;45708;51.848;107.620;2023-05-11T14:21:57;95069.66;;;5.09;46.67
59829;BME280;45708;51.848;107.620;2023-05-11T14:26:58;95075.34;;;4.98;47.32
59829;BME280;45708;51.848;107.620;2023-05-11T14:31:58;95048.50;;;4.74;46.71
59829;BME280;45708;51.848;107.620;2023-05-11T14:36:59;95072.22;;;4.87;47.33
59829;BME280;45708;51.848;107.620;2023-05-11T14:42:00;95071.88;;;4.76;47.46
59829;BME280;45708;51.848;107.620;2023-05-11T14:47:01;95064.59;;;4.56;47.81
59829;BME280;45708;51.848;107.620;2023-05-11T14:52:03;95055.16;;;4.41;48.00
59829;BME280;45708;51.848;107.620;2023-05-11T14:57:04;95067.44;;;4.25;48.21
59829;BME280;45708;51.848;107.620;2023-05-11T15:02:05;95071.41;;;4.21;48.92
59829;BME280;45708;51.848;107.620;2023-05-11T15:07:06;95068.78;;;4.21;48.53
59829;BME280;45708;51.848;107.620;2023-05-11T15:12:07;95075.53;;;4.16;48.77
59829;BME280;45708;51.848;107.620;2023-05-11T15:17:08;95083.28;;;4.09;48.97
59829;BME280;45708;51.848;107.620;2023-05-11T15:22:09;95086.69;;;3.95;49.04
59829;BME280;45708;51.848;107.620;2023-05-11T15:27:10;95081.19;;;3.90;49.53
59829;BME280;45708;51.848;107.620;2023-05-11T15:32:12;95075.38;;;3.80;49.41
59829;BME280;45708;51.848;107.620;2023-05-11T15:37:13;95075.81;;;3.69;49.77
59829;BME280;45708;51.848;107.620;2023-05-11T15:42:14;95065.59;;;3.59;50.17
59829;BME280;45708;51.848;107.620;2023-05-11T15:47:15;95059.56;;;3.58;50.34
59829;BME280;45708;51.848;107.620;2023-05-11T15:52:16;95057.38;;;3.47;50.82
59829;BME280;45708;51.848;107.620;2023-05-11T15:57:17;95032.34;;;3.15;51.32
59829;BME280;45708;51.848;107.620;2023-05-11T16:02:18;95072.75;;;3.19;52.12
59829;BME280;45708;51.848;107.620;2023-05-11T16:07:19;95067.72;;;3.18;52.39
59829;BME280;45708;51.848;107.620;2023-05-11T16:12:19;95051.94;;;3.11;52.22
59829;BME280;45708;51.848;107.620;2023-05-11T16:17:20;95072.53;;;3.29;52.09
59829;BME280;45708;51.848;107.620;2023-05-11T16:22:21;95064.44;;;3.24;52.32
59829;BME280;45708;51.848;107.620;2023-05-11T16:27:22;95064.81;;;3.13;52.43
59829;BME280;45708;51.848;107.620;2023-05-11T16:32:23;95062.28;;;3.04;52.64
59829;BME280;45708;51.848;107.620;2023-05-11T16:37:24;95053.31;;;2.99;52.69
59829;BME280;45708;51.848;107.620;2023-05-11T16:42:24;95050.22;;;3.03;52.07
59829;BME280;45708;51.848;107.620;2023-05-11T16:47:25;95034.59;;;2.95;52.22
59829;BME280;45708;51.848;107.620;2023-05-11T16:52:26;95050.88;;;2.97;52.24
59829;BME280;45708;51.848;107.620;2023-05-11T16:57:27;95026.72;;;2.81;52.38
59829;BME280;45708;51.848;107.620;2023-05-11T17:02:28;95052.50;;;2.98;52.39
59829;BME280;45708;51.848;107.620;2023-05-11T17:07:29;95061.09;;;2.84;53.24
59829;BME280;45708;51.848;107.620;2023-05-11T17:12:30;95046.22;;;2.62;53.56
59829;BME280;45708;51.848;107.620;2023-05-11T17:17:31;95067.16;;;2.77;53.11
59829;BME280;45708;51.848;107.620;2023-05-11T17:22:34;95054.28;;;2.75;53.43
59829;BME280;45708;51.848;107.620;2023-05-11T17:27:35;95045.78;;;2.81;53.44
59829;BME280;45708;51.848;107.620;2023-05-11T17:32:36;95051.13;;;2.88;53.91
59829;BME280;45708;51.848;107.620;2023-05-11T17:37:37;95047.41;;;2.82;53.96
59829;BME280;45708;51.848;107.620;2023-05-11T17:42:38;95038.69;;;2.67;53.80
59829;BME280;45708;51.848;107.620;2023-05-11T17:47:39;95031.22;;;2.56;54.30
59829;BME280;45708;51.848;107.620;2023-05-11T17:52:39;95011.19;;;2.56;54.16
59829;BME280;45708;51.848;107.620;2023-05-11T17:57:40;95018.44;;;2.38;55.01
59829;BME280;45708;51.848;107.620;2023-05-11T18:02:41;95018.84;;;2.19;55.44
59829;BME280;45708;51.848;107.620;2023-05-11T18:07:42;95018.28;;;2.00;55.97
59829;BME280;45708;51.848;107.620;2023-05-11T18:12:42;95014.91;;;1.83;56.29
59829;BME280;45708;51.848;107.620;2023-05-11T18:17:43;94984.66;;;1.74;56.21
59829;BME280;45708;51.848;107.620;2023-05-11T18:22:44;94995.75;;;1.68;56.62
59829;BME280;45708;51.848;107.620;2023-05-11T18:27:45;94974.31;;;1.50;56.58
59829;BME280;45708;51.848;107.620;2023-05-11T18:32:46;94966.38;;;1.27;57.49
59829;BME280;45708;51.848;107.620;2023-05-11T18:37:49;94981.81;;;1.29;57.72
59829;BME280;45708;51.848;107.620;2023-05-11T18:42:51;94947.69;;;0.99;56.88
59829;BME280;45708;51.848;107.620;2023-05-11T18:47:52;94981.34;;;1.17;57.75
59829;BME280;45708;51.848;107.620;2023-05-11T18:52:53;94975.31;;;1.16;57.30
59829;BME280;45708;51.848;107.620;2023-05-11T18:57:54;94960.69;;;1.07;57.68
59829;BME280;45708;51.848;107.620;2023-05-11T19:02:54;94966.25;;;1.04;58.21
59829;BME280;45708;51.848;107.620;2023-05-11T19:07:55;94952.75;;;0.93;58.16
59829;BME280;45708;51.848;107.620;2023-05-11T19:12:56;94960.69;;;0.91;58.31
59829;BME280;45708;51.848;107.620;2023-05-11T19:17:57;94963.31;;;0.83;58.95
59829;BME280;45708;51.848;107.620;2023-05-11T19:22:58;94958.75;;;0.77;58.48
59829;BME280;45708;51.848;107.620;2023-05-11T19:27:58;94963.63;;;0.64;59.04
59829;BME280;45708;51.848;107.620;2023-05-11T19:32:59;94945.09;;;0.42;59.78
59829;BME280;45708;51.848;107.620;2023-05-11T19:38:00;94938.09;;;0.43;59.22
59829;BME280;45708;51.848;107.620;2023-05-11T19:43:03;94955.97;;;0.46;59.26
59829;BME280;45708;51.848;107.620;2023-05-11T19:48:04;94926.69;;;0.27;59.59
59829;BME280;45708;51.848;107.620;2023-05-11T19:53:05;94944.56;;;0.39;59.36
59829;BME280;45708;51.848;107.620;2023-05-11T19:58:06;94935.47;;;0.35;59.32
59829;BME280;45708;51.848;107.620;2023-05-11T20:03:07;94932.19;;;0.16;60.30
59829;BME280;45708;51.848;107.620;2023-05-11T20:08:08;94930.72;;;0.14;60.76
59829;BME280;45708;51.848;107.620;2023-05-11T20:13:09;94938.84;;;0.19;60.34
59829;BME280;45708;51.848;107.620;2023-05-11T20:18:10;94894.69;;;0.11;59.91
59829;BME280;45708;51.848;107.620;2023-05-11T20:23:10;94906.69;;;0.12;60.12
59829;BME280;45708;51.848;107.620;2023-05-11T20:28:11;94919.22;;;0.24;60.15
59829;BME280;45708;51.848;107.620;2023-05-11T20:33:12;94901.50;;;0.12;60.26
59829;BME280;45708;51.848;107.620;2023-05-11T20:38:13;94912.88;;;0.19;60.12
59829;BME280;45708;51.848;107.620;2023-05-11T20:43:14;94884.09;;;-0.04;60.44
59829;BME280;45708;51.848;107.620;2023-05-11T20:48:15;94901.66;;;0.02;60.83
59829;BME280;45708;51.848;107.620;2023-05-11T20:53:17;94905.69;;;-0.04;60.74
59829;BME280;45708;51.848;107.620;2023-05-11T20:58:18;94869.97;;;-0.18;60.55
59829;BME280;45708;51.848;107.620;2023-05-11T21:03:18;94902.63;;;0.01;60.67
59829;BME280;45708;51.848;107.620;2023-05-11T21:08:19;94901.13;;;-0.02;61.22
59829;BME280;45708;51.848;107.620;2023-05-11T21:13:20;94897.53;;;-0.17;61.49
59829;BME280;45708;51.848;107.620;2023-05-11T21:18:21;94860.50;;;-0.35;61.32
59829;BME280;45708;51.848;107.620;2023-05-11T21:23:22;94895.09;;;-0.18;61.58
59829;BME280;45708;51.848;107.620;2023-05-11T21:28:24;94898.84;;;-0.13;61.60
59829;BME280;45708;51.848;107.620;2023-05-11T21:33:25;94874.13;;;-0.25;62.03
59829;BME280;45708;51.848;107.620;2023-05-11T21:38:26;94865.22;;;-0.31;61.65
59829;BME280;45708;51.848;107.620;2023-05-11T21:43:26;94888.84;;;0.01;61.07
59829;BME280;45708;51.848;107.620;2023-05-11T21:48:28;94880.41;;;0.07;61.26
59829;BME280;45708;51.848;107.620;2023-05-11T21:53:29;94877.47;;;0.10;60.75
59829;BME280;45708;51.848;107.620;2023-05-11T21:58:29;94873.44;;;0.23;60.92
59829;BME280;45708;51.848;107.620;2023-05-11T22:03:30;94872.31;;;0.34;60.91
59829;BME280;45708;51.848;107.620;2023-05-11T22:08:31;94865.50;;;0.41;61.01
59829;BME280;45708;51.848;107.620;2023-05-11T22:13:32;94861.91;;;0.58;61.27
59829;BME280;45708;51.848;107.620;2023-05-11T22:18:33;94858.47;;;0.90;59.92
59829;BME280;45708;51.848;107.620;2023-05-11T22:23:33;94826.38;;;1.14;59.48
59829;BME280;45708;51.848;107.620;2023-05-11T22:28:34;94851.34;;;3.52;57.10
59829;BME280;45708;51.848;107.620;2023-05-11T22:33:35;94847.88;;;6.13;49.24
59829;BME280;45708;51.848;107.620;2023-05-11T22:38:36;94846.91;;;7.53;45.67
59829;BME280;45708;51.848;107.620;2023-05-11T22:43:36;94841.44;;;8.64;43.63
59829;BME280;45708;51.848;107.620;2023-05-11T22:48:37;94847.69;;;9.81;41.19
59829;BME280;45708;51.848;107.620;2023-05-11T22:53:38;94824.22;;;10.57;40.03
59829;BME280;45708;51.848;107.620;2023-05-11T22:58:55;94828.41;;;11.42;38.34
59829;BME280;45708;51.848;107.620;2023-05-11T23:03:56;94827.59;;;11.41;37.20
59829;BME280;45708;51.848;107.620;2023-05-11T23:08:57;94807.91;;;11.72;35.18
59829;BME280;45708;51.848;107.620;2023-05-11T23:13:58;94827.47;;;12.35;35.06
59829;BME280;45708;51.848;107.620;2023-05-11T23:18:59;94824.13;;;11.29;36.23
59829;BME280;45708;51.848;107.620;2023-05-11T23:23:59;94802.28;;;11.69;35.78
59829;BME280;45708;51.848;107.620;2023-05-11T23:29:01;94805.06;;;12.14;33.45
59829;BME280;45708;51.848;107.620;2023-05-11T23:34:02;94790.28;;;13.59;31.68
59829;BME280;45708;51.848;107.620;2023-05-11T23:39:03;94785.56;;;14.48;30.80
59829;BME280;45708;51.848;107.620;2023-05-11T23:44:04;94777.78;;;14.42;30.07
59829;BME280;45708;51.848;107.620;2023-05-11T23:49:05;94772.31;;;15.12;29.37
59829;BME280;45708;51.848;107.620;2023-05-11T23:54:06;94765.41;;;16.01;28.08
59829;BME280;45708;51.848;107.620;2023-05-11T23:59:07;94750.22;;;16.01;27.63
